sensor_id;sensor_type;location;lat;lon;timestamp;pressure;altitude;pressure_sealevel;temperature;humidity
7433;BME280;32233;49.500;7.764;2023-02-18T00:01:09;99342.69;;;9.41;100.00
7433;BME280;32233;49.500;7.764;2023-02-18T00:03:36;99349.44;;;9.44;100.00
7433;BME280;32233;49.500;7.764;2023-02-18T00:06:18;99344.31;;;9.42;100.00
7433;BME280;32233;49.500;7.764;2023-02-18T00:08:45;99348.16;;;9.40;100.00
7433;BME280;32233;49.500;7.764;2023-02-18T00:11:13;99342.69;;;9.41;100.00
7433;BME280;32233;49.500;7.764;2023-02-18T00:13:40;99337.41;;;9.41;100.00
7433;BME280;32233;49.500;7.764;2023-02-18T00:16:10;99340.38;;;9.38;100.00
7433;BME280;32233;49.500;7.764;2023-02-18T00:18:37;99345.50;;;9.40;100.00
7433;BME280;32233;49.500;7.764;2023-02-18T00:21:05;99335.44;;;9.43;100.00
7433;BME280;32233;49.500;7.764;2023-02-18T00:23:33;99352.25;;;9.42;100.00
7433;BME280;32233;49.500;7.764;2023-02-18T00:26:01;99341.84;;;9.49;100.00
7433;BME280;32233;49.500;7.764;2023-02-18T00:28:28;99338.56;;;9.47;100.00
7433;BME280;32233;49.500;7.764;2023-02-18T00:30:54;99347.78;;;9.51;100.00
7433;BME280;32233;49.500;7.764;2023-02-18T00:33:22;99343.13;;;9.53;100.00
7433;BME280;32233;49.500;7.764;2023-02-18T00:35:49;99337.19;;;9.59;100.00
7433;BME280;32233;49.500;7.764;2023-02-18T00:38:15;99342.28;;;9.61;100.00
7433;BME280;32233;49.500;7.764;2023-02-18T00:40:42;99333.50;;;9.68;100.00
7433;BME280;32233;49.500;7.764;2023-02-18T00:43:09;99339.94;;;9.66;100.00
7433;BME280;32233;49.500;7.764;2023-02-18T00:45:35;99331.47;;;9.71;100.00
7433;BME280;32233;49.500;7.764;2023-02-18T00:48:03;99329.31;;;9.74;100.00
7433;BME280;32233;49.500;7.764;2023-02-18T00:50:29;99327.97;;;9.78;100.00
7433;BME280;32233;49.500;7.764;2023-02-18T00:52:56;99324.69;;;9.76;100.00
7433;BME280;32233;49.500;7.764;2023-02-18T00:55:22;99321.06;;;9.77;100.00
7433;BME280;32233;49.500;7.764;2023-02-18T00:57:49;99323.41;;;9.72;100.00
7433;BME280;32233;49.500;7.764;2023-02-18T01:00:16;99329.78;;;9.78;100.00
7433;BME280;32233;49.500;7.764;2023-02-18T01:02:42;99331.97;;;9.74;100.00
7433;BME280;32233;49.500;7.764;2023-02-18T01:05:09;99328.78;;;9.79;100.00
7433;BME280;32233;49.500;7.764;2023-02-18T01:07:35;99328.97;;;9.77;100.00
7433;BME280;32233;49.500;7.764;2023-02-18T01:10:04;99333.25;;;9.78;100.00
7433;BME280;32233;49.500;7.764;2023-02-18T01:12:31;99338.38;;;9.80;100.00
7433;BME280;32233;49.500;7.764;2023-02-18T01:14:57;99346.31;;;9.80;100.00
7433;BME280;32233;49.500;7.764;2023-02-18T01:17:24;99350.09;;;9.77;100.00
7433;BME280;32233;49.500;7.764;2023-02-18T01:19:50;99341.38;;;9.77;100.00
7433;BME280;32233;49.500;7.764;2023-02-18T01:22:17;99336.91;;;9.77;100.00
7433;BME280;32233;49.500;7.764;2023-02-18T01:24:43;99333.72;;;9.82;100.00
7433;BME280;32233;49.500;7.764;2023-02-18T01:27:12;99329.28;;;9.82;100.00
7433;BME280;32233;49.500;7.764;2023-02-18T01:29:40;99337.53;;;9.79;100.00
7433;BME280;32233;49.500;7.764;2023-02-18T01:32:06;99330.97;;;9.75;100.00
7433;BME280;32233;49.500;7.764;2023-02-18T01:34:33;99318.75;;;9.74;100.00
7433;BME280;32233;49.500;7.764;2023-02-18T01:36:59;99324.22;;;9.73;100.00
7433;BME280;32233;49.500;7.764;2023-02-18T01:39:26;99329.59;;;9.79;100.00
7433;BME280;32233;49.500;7.764;2023-02-18T01:41:52;99327.03;;;9.71;100.00
7433;BME280;32233;49.500;7.764;2023-02-18T01:44:22;99332.47;;;9.70;100.00
7433;BME280;32233;49.500;7.764;2023-02-18T01:46:49;99335.31;;;9.68;100.00
7433;BME280;32233;49.500;7.764;2023-02-18T01:49:29;99345.72;;;9.61;100.00
7433;BME280;32233;49.500;7.764;2023-02-18T01:52:01;99338.63;;;9.62;100.00
7433;BME280;32233;49.500;7.764;2023-02-18T01:54:33;99342.50;;;9.51;100.00
7433;BME280;32233;49.500;7.764;2023-02-18T01:57:08;99327.72;;;9.34;100.00
7433;BME280;32233;49.500;7.764;2023-02-18T01:59:38;99335.03;;;9.24;100.00
7433;BME280;32233;49.500;7.764;2023-02-18T02:02:08;99329.75;;;9.24;100.00
7433;BME280;32233;49.500;7.764;2023-02-18T02:04:36;99328.44;;;9.20;100.00
7433;BME280;32233;49.500;7.764;2023-02-18T02:07:02;99320.34;;;9.21;100.00
7433;BME280;32233;49.500;7.764;2023-02-18T02:09:31;99317.88;;;9.20;100.00
7433;BME280;32233;49.500;7.764;2023-02-18T02:12:24;99310.13;;;9.18;100.00
7433;BME280;32233;49.500;7.764;2023-02-18T02:20:31;99298.75;;;9.17;100.00
7433;BME280;32233;49.500;7.764;2023-02-18T02:26:25;99281.28;;;9.16;100.00
7433;BME280;32233;49.500;7.764;2023-02-18T02:34:55;99266.63;;;9.14;100.00
7433;BME280;32233;49.500;7.764;2023-02-18T02:43:02;99264.13;;;9.21;100.00
7433;BME280;32233;49.500;7.764;2023-02-18T02:46:08;99261.63;;;9.27;100.00
7433;BME280;32233;49.500;7.764;2023-02-18T02:48:48;99275.66;;;9.28;100.00
7433;BME280;32233;49.500;7.764;2023-02-18T02:53:49;99262.47;;;9.28;100.00
7433;BME280;32233;49.500;7.764;2023-02-18T02:56:18;99259.63;;;9.29;100.00
7433;BME280;32233;49.500;7.764;2023-02-18T02:58:57;99265.69;;;9.38;100.00
7433;BME280;32233;49.500;7.764;2023-02-18T03:10:03;99250.91;;;9.29;100.00
7433;BME280;32233;49.500;7.764;2023-02-18T03:15:27;99230.50;;;9.23;100.00
7433;BME280;32233;49.500;7.764;2023-02-18T03:18:05;99237.28;;;9.17;100.00
7433;BME280;32233;49.500;7.764;2023-02-18T03:20:35;99241.53;;;9.18;100.00
7433;BME280;32233;49.500;7.764;2023-02-18T03:23:06;99241.91;;;9.15;100.00
7433;BME280;32233;49.500;7.764;2023-02-18T03:25:36;99259.41;;;9.08;100.00
7433;BME280;32233;49.500;7.764;2023-02-18T03:28:07;99257.63;;;9.00;100.00
7433;BME280;32233;49.500;7.764;2023-02-18T03:30:55;99257.81;;;8.99;100.00
7433;BME280;32233;49.500;7.764;2023-02-18T03:33:32;99259.97;;;8.95;100.00
7433;BME280;32233;49.500;7.764;2023-02-18T03:36:01;99255.31;;;8.97;100.00
7433;BME280;32233;49.500;7.764;2023-02-18T03:38:33;99263.91;;;8.99;100.00
7433;BME280;32233;49.500;7.764;2023-02-18T03:41:03;99257.94;;;9.05;100.00
7433;BME280;32233;49.500;7.764;2023-02-18T03:43:31;99257.94;;;9.05;100.00
7433;BME280;32233;49.500;7.764;2023-02-18T03:45:58;99253.16;;;9.01;100.00
7433;BME280;32233;49.500;7.764;2023-02-18T03:48:25;99244.59;;;9.07;100.00
7433;BME280;32233;49.500;7.764;2023-02-18T03:50:51;99245.88;;;9.11;100.00
7433;BME280;32233;49.500;7.764;2023-02-18T03:53:18;99247.00;;;9.16;100.00
7433;BME280;32233;49.500;7.764;2023-02-18T03:55:44;99240.44;;;9.12;100.00
7433;BME280;32233;49.500;7.764;2023-02-18T03:58:11;99242.88;;;9.14;100.00
7433;BME280;32233;49.500;7.764;2023-02-18T04:00:37;99231.88;;;9.10;100.00
7433;BME280;32233;49.500;7.764;2023-02-18T04:03:04;99234.63;;;9.17;100.00
7433;BME280;32233;49.500;7.764;2023-02-18T04:05:30;99225.72;;;9.18;100.00
7433;BME280;32233;49.500;7.764;2023-02-18T04:07:57;99232.81;;;9.17;100.00
7433;BME280;32233;49.500;7.764;2023-02-18T04:10:23;99225.38;;;9.21;100.00
7433;BME280;32233;49.500;7.764;2023-02-18T04:12:49;99225.38;;;9.21;100.00
7433;BME280;32233;49.500;7.764;2023-02-18T04:15:16;99229.50;;;9.24;100.00
7433;BME280;32233;49.500;7.764;2023-02-18T04:17:43;99233.13;;;9.23;100.00
7433;BME280;32233;49.500;7.764;2023-02-18T04:20:09;99218.44;;;9.28;100.00
7433;BME280;32233;49.500;7.764;2023-02-18T04:22:36;99225.34;;;9.29;100.00
7433;BME280;32233;49.500;7.764;2023-02-18T04:25:03;99228.31;;;9.26;100.00
7433;BME280;32233;49.500;7.764;2023-02-18T04:27:29;99227.97;;;9.29;100.00
7433;BME280;32233;49.500;7.764;2023-02-18T04:29:56;99225.03;;;9.24;100.00
7433;BME280;32233;49.500;7.764;2023-02-18T04:32:22;99226.88;;;9.24;100.00
7433;BME280;32233;49.500;7.764;2023-02-18T04:34:49;99228.69;;;9.23;100.00
7433;BME280;32233;49.500;7.764;2023-02-18T04:37:15;99218.13;;;9.23;100.00
7433;BME280;32233;49.500;7.764;2023-02-18T04:39:42;99213.47;;;9.25;100.00
7433;BME280;32233;49.500;7.764;2023-02-18T04:42:09;99215.34;;;9.16;100.00
7433;BME280;32233;49.500;7.764;2023-02-18T04:44:36;99211.56;;;9.19;100.00
7433;BME280;32233;49.500;7.764;2023-02-18T04:47:04;99211.56;;;9.19;100.00
7433;BME280;32233;49.500;7.764;2023-02-18T04:49:31;99211.56;;;9.19;100.00
7433;BME280;32233;49.500;7.764;2023-02-18T04:51:58;99214.34;;;9.17;100.00
7433;BME280;32233;49.500;7.764;2023-02-18T04:54:24;99205.97;;;9.14;100.00
7433;BME280;32233;49.500;7.764;2023-02-18T04:56:51;99203.81;;;9.17;100.00
7433;BME280;32233;49.500;7.764;2023-02-18T04:59:17;99201.91;;;9.03;100.00
7433;BME280;32233;49.500;7.764;2023-02-18T05:01:44;99207.53;;;9.00;100.00
7433;BME280;32233;49.500;7.764;2023-02-18T05:04:10;99214.28;;;9.03;100.00
7433;BME280;32233;49.500;7.764;2023-02-18T05:06:37;99219.50;;;9.11;100.00
7433;BME280;32233;49.500;7.764;2023-02-18T05:09:05;99220.16;;;9.13;100.00
7433;BME280;32233;49.500;7.764;2023-02-18T05:11:31;99218.38;;;9.05;100.00
7433;BME280;32233;49.500;7.764;2023-02-18T05:13:58;99223.84;;;9.04;100.00
7433;BME280;32233;49.500;7.764;2023-02-18T05:16:25;99226.13;;;9.07;100.00
7433;BME280;32233;49.500;7.764;2023-02-18T05:18:51;99223.00;;;9.03;100.00
7433;BME280;32233;49.500;7.764;2023-02-18T05:21:18;99215.72;;;9.05;100.00
7433;BME280;32233;49.500;7.764;2023-02-18T05:23:44;99205.03;;;9.07;100.00
7433;BME280;32233;49.500;7.764;2023-02-18T05:26:11;99211.78;;;9.01;100.00
7433;BME280;32233;49.500;7.764;2023-02-18T05:28:37;99209.94;;;9.10;100.00
7433;BME280;32233;49.500;7.764;2023-02-18T05:31:04;99211.31;;;8.98;100.00
7433;BME280;32233;49.500;7.764;2023-02-18T05:33:31;99207.72;;;8.99;100.00
7433;BME280;32233;49.500;7.764;2023-02-18T05:35:57;99206.09;;;8.89;100.00
7433;BME280;32233;49.500;7.764;2023-02-18T05:38:24;99205.94;;;8.91;100.00
7433;BME280;32233;49.500;7.764;2023-02-18T05:40:51;99210.88;;;8.94;100.00
7433;BME280;32233;49.500;7.764;2023-02-18T05:43:17;99209.56;;;8.90;100.00
7433;BME280;32233;49.500;7.764;2023-02-18T05:45:44;99206.03;;;8.98;100.00
7433;BME280;32233;49.500;7.764;2023-02-18T05:48:10;99201.47;;;8.91;100.00
7433;BME280;32233;49.500;7.764;2023-02-18T05:50:37;99204.28;;;8.90;100.00
7433;BME280;32233;49.500;7.764;2023-02-18T05:53:05;99202.97;;;8.94;100.00
7433;BME280;32233;49.500;7.764;2023-02-18T05:55:32;99214.13;;;8.96;100.00
7433;BME280;32233;49.500;7.764;2023-02-18T05:58:03;99212.47;;;9.03;100.00
7433;BME280;32233;49.500;7.764;2023-02-18T06:00:30;99213.03;;;8.90;100.00
7433;BME280;32233;49.500;7.764;2023-02-18T06:02:57;99209.03;;;8.95;100.00
7433;BME280;32233;49.500;7.764;2023-02-18T06:05:24;99206.03;;;8.98;100.00
7433;BME280;32233;49.500;7.764;2023-02-18T06:07:51;99202.47;;;8.90;100.00
7433;BME280;32233;49.500;7.764;2023-02-18T06:10:17;99203.06;;;9.01;100.00
7433;BME280;32233;49.500;7.764;2023-02-18T06:12:44;99198.31;;;8.96;100.00
7433;BME280;32233;49.500;7.764;2023-02-18T06:15:10;99201.19;;;8.86;100.00
7433;BME280;32233;49.500;7.764;2023-02-18T06:17:37;99191.59;;;8.85;100.00
7433;BME280;32233;49.500;7.764;2023-02-18T06:20:04;99188.47;;;8.90;100.00
7433;BME280;32233;49.500;7.764;2023-02-18T06:22:30;99186.00;;;8.88;100.00
7433;BME280;32233;49.500;7.764;2023-02-18T06:24:57;99191.25;;;8.88;100.00
7433;BME280;32233;49.500;7.764;2023-02-18T06:27:23;99182.34;;;8.89;100.00
7433;BME280;32233;49.500;7.764;2023-02-18T06:29:50;99176.94;;;8.91;100.00
7433;BME280;32233;49.500;7.764;2023-02-18T06:32:16;99176.09;;;8.90;100.00
7433;BME280;32233;49.500;7.764;2023-02-18T06:34:43;99157.16;;;8.87;100.00
7433;BME280;32233;49.500;7.764;2023-02-18T06:37:09;99164.59;;;8.83;100.00
7433;BME280;32233;49.500;7.764;2023-02-18T06:39:38;99151.72;;;8.88;100.00
7433;BME280;32233;49.500;7.764;2023-02-18T06:42:04;99156.84;;;8.90;100.00
7433;BME280;32233;49.500;7.764;2023-02-18T06:44:31;99153.00;;;8.92;100.00
7433;BME280;32233;49.500;7.764;2023-02-18T06:46:57;99148.75;;;8.91;100.00
7433;BME280;32233;49.500;7.764;2023-02-18T06:49:24;99150.66;;;8.98;100.00
7433;BME280;32233;49.500;7.764;2023-02-18T06:51:50;99153.88;;;8.85;100.00
7433;BME280;32233;49.500;7.764;2023-02-18T06:54:17;99144.09;;;8.93;100.00
7433;BME280;32233;49.500;7.764;2023-02-18T06:56:43;99153.16;;;8.99;100.00
7433;BME280;32233;49.500;7.764;2023-02-18T06:59:10;99147.16;;;9.05;100.00
7433;BME280;32233;49.500;7.764;2023-02-18T07:01:36;99160.19;;;9.07;100.00
7433;BME280;32233;49.500;7.764;2023-02-18T07:04:03;99158.19;;;9.09;100.00
7433;BME280;32233;49.500;7.764;2023-02-18T07:06:30;99162.13;;;9.13;100.00
7433;BME280;32233;49.500;7.764;2023-02-18T07:08:56;99159.50;;;9.13;100.00
7433;BME280;32233;49.500;7.764;2023-02-18T07:11:23;99156.50;;;9.16;100.00
7433;BME280;32233;49.500;7.764;2023-02-18T07:13:49;99146.44;;;9.20;100.00
7433;BME280;32233;49.500;7.764;2023-02-18T07:16:15;99155.16;;;9.20;100.00
7433;BME280;32233;49.500;7.764;2023-02-18T07:18:42;99144.13;;;9.16;100.00
7433;BME280;32233;49.500;7.764;2023-02-18T07:21:08;99146.44;;;9.20;100.00
7433;BME280;32233;49.500;7.764;2023-02-18T07:23:35;99147.06;;;9.22;100.00
7433;BME280;32233;49.500;7.764;2023-02-18T07:26:04;99137.28;;;9.30;100.00
7433;BME280;32233;49.500;7.764;2023-02-18T07:28:31;99144.69;;;9.35;100.00
7433;BME280;32233;49.500;7.764;2023-02-18T07:30:57;99141.50;;;9.39;100.00
7433;BME280;32233;49.500;7.764;2023-02-18T07:33:24;99145.44;;;9.43;100.00
7433;BME280;32233;49.500;7.764;2023-02-18T07:35:55;99143.09;;;9.49;100.00
7433;BME280;32233;49.500;7.764;2023-02-18T07:38:23;99145.91;;;9.47;100.00
7433;BME280;32233;49.500;7.764;2023-02-18T07:40:50;99134.16;;;9.50;100.00
7433;BME280;32233;49.500;7.764;2023-02-18T07:43:17;99151.34;;;9.46;99.68
7433;BME280;32233;49.500;7.764;2023-02-18T07:45:44;99143.78;;;9.42;100.00
7433;BME280;32233;49.500;7.764;2023-02-18T07:48:11;99140.63;;;9.47;99.52
7433;BME280;32233;49.500;7.764;2023-02-18T07:50:39;99158.09;;;9.48;100.00
7433;BME280;32233;49.500;7.764;2023-02-18T07:53:07;99156.47;;;9.47;99.97
7433;BME280;32233;49.500;7.764;2023-02-18T07:55:33;99163.19;;;9.50;99.79
7433;BME280;32233;49.500;7.764;2023-02-18T07:58:16;99156.47;;;9.47;99.19
7433;BME280;32233;49.500;7.764;2023-02-18T08:00:43;99154.81;;;9.46;99.80
7433;BME280;32233;49.500;7.764;2023-02-18T08:03:09;99158.44;;;9.45;99.49
7433;BME280;32233;49.500;7.764;2023-02-18T08:05:36;99149.25;;;9.41;98.82
7433;BME280;32233;49.500;7.764;2023-02-18T08:08:03;99148.91;;;9.44;99.37
7433;BME280;32233;49.500;7.764;2023-02-18T08:10:29;99145.25;;;9.45;98.54
7433;BME280;32233;49.500;7.764;2023-02-18T08:12:56;99143.16;;;9.40;98.65
7433;BME280;32233;49.500;7.764;2023-02-18T08:15:22;99143.16;;;9.40;98.56
7433;BME280;32233;49.500;7.764;2023-02-18T08:17:49;99151.06;;;9.40;98.44
7433;BME280;32233;49.500;7.764;2023-02-18T08:20:15;99154.16;;;9.44;98.44
7433;BME280;32233;49.500;7.764;2023-02-18T08:22:42;99152.97;;;9.47;99.05
7433;BME280;32233;49.500;7.764;2023-02-18T08:25:08;99157.84;;;9.58;98.17
7433;BME280;32233;49.500;7.764;2023-02-18T08:27:52;99144.31;;;9.61;97.49
7433;BME280;32233;49.500;7.764;2023-02-18T08:30:19;99144.50;;;9.59;97.14
7433;BME280;32233;49.500;7.764;2023-02-18T08:32:46;99127.47;;;9.62;96.27
7433;BME280;32233;49.500;7.764;2023-02-18T08:35:12;99131.03;;;9.69;95.65
7433;BME280;32233;49.500;7.764;2023-02-18T08:37:39;99130.75;;;9.64;94.95
7433;BME280;32233;49.500;7.764;2023-02-18T08:40:19;99128.03;;;9.72;95.17
7433;BME280;32233;49.500;7.764;2023-02-18T08:42:46;99127.22;;;9.72;94.81
7433;BME280;32233;49.500;7.764;2023-02-18T08:45:13;99125.69;;;9.77;94.71
7433;BME280;32233;49.500;7.764;2023-02-18T08:47:39;99119.84;;;9.82;94.67
7433;BME280;32233;49.500;7.764;2023-02-18T08:50:27;99116.44;;;9.96;94.15
7433;BME280;32233;49.500;7.764;2023-02-18T08:52:53;99124.44;;;10.03;93.15
7433;BME280;32233;49.500;7.764;2023-02-18T08:55:20;99136.34;;;9.99;93.06
7433;BME280;32233;49.500;7.764;2023-02-18T08:57:47;99136.34;;;9.99;92.85
7433;BME280;32233;49.500;7.764;2023-02-18T09:00:15;99125.16;;;9.97;93.35
7433;BME280;32233;49.500;7.764;2023-02-18T09:02:42;99143.66;;;9.97;94.60
7433;BME280;32233;49.500;7.764;2023-02-18T09:05:09;99151.84;;;10.02;94.21
7433;BME280;32233;49.500;7.764;2023-02-18T09:07:36;99138.22;;;10.13;93.19
7433;BME280;32233;49.500;7.764;2023-02-18T09:10:03;99140.34;;;9.95;93.67
7433;BME280;32233;49.500;7.764;2023-02-18T09:12:30;99151.97;;;10.08;92.60
7433;BME280;32233;49.500;7.764;2023-02-18T09:14:56;99163.59;;;9.99;92.64
7433;BME280;32233;49.500;7.764;2023-02-18T09:17:23;99159.50;;;9.97;92.32
7433;BME280;32233;49.500;7.764;2023-02-18T09:19:49;99159.38;;;9.90;93.67
7433;BME280;32233;49.500;7.764;2023-02-18T09:22:16;99177.44;;;10.01;93.61
7433;BME280;32233;49.500;7.764;2023-02-18T09:24:43;99163.59;;;9.99;92.92
7433;BME280;32233;49.500;7.764;2023-02-18T09:27:09;99162.84;;;9.90;94.60
7433;BME280;32233;49.500;7.764;2023-02-18T09:29:38;99166.59;;;9.96;93.65
7433;BME280;32233;49.500;7.764;2023-02-18T09:32:06;99157.22;;;9.93;93.01
7433;BME280;32233;49.500;7.764;2023-02-18T09:34:33;99157.56;;;9.90;91.62
7433;BME280;32233;49.500;7.764;2023-02-18T09:37:00;99149.63;;;9.90;92.21
7433;BME280;32233;49.500;7.764;2023-02-18T09:39:26;99162.97;;;9.97;91.65
7433;BME280;32233;49.500;7.764;2023-02-18T09:41:54;99164.94;;;9.80;91.14
7433;BME280;32233;49.500;7.764;2023-02-18T09:44:26;99150.13;;;9.71;91.07
7433;BME280;32233;49.500;7.764;2023-02-18T09:46:58;99161.75;;;9.85;91.22
7433;BME280;32233;49.500;7.764;2023-02-18T09:49:28;99168.97;;;10.06;89.65
7433;BME280;32233;49.500;7.764;2023-02-18T09:51:56;99166.69;;;10.03;89.04
7433;BME280;32233;49.500;7.764;2023-02-18T09:54:27;99171.72;;;10.12;87.36
7433;BME280;32233;49.500;7.764;2023-02-18T09:56:53;99178.38;;;10.08;87.62
7433;BME280;32233;49.500;7.764;2023-02-18T09:59:21;99169.72;;;10.14;87.29
7433;BME280;32233;49.500;7.764;2023-02-18T10:01:51;99172.63;;;10.05;87.44
7433;BME280;32233;49.500;7.764;2023-02-18T10:04:42;99162.69;;;10.07;85.71
7433;BME280;32233;49.500;7.764;2023-02-18T10:07:22;99164.06;;;10.03;87.08
7433;BME280;32233;49.500;7.764;2023-02-18T10:09:54;99160.78;;;10.15;86.80
7433;BME280;32233;49.500;7.764;2023-02-18T10:12:23;99168.09;;;10.13;85.96
7433;BME280;32233;49.500;7.764;2023-02-18T10:14:52;99166.31;;;10.29;86.17
7433;BME280;32233;49.500;7.764;2023-02-18T10:17:22;99169.84;;;10.36;85.00
7433;BME280;32233;49.500;7.764;2023-02-18T10:19:51;99186.09;;;10.33;83.30
7433;BME280;32233;49.500;7.764;2023-02-18T10:22:19;99176.03;;;10.28;82.91
7433;BME280;32233;49.500;7.764;2023-02-18T10:25:05;99172.94;;;10.39;82.84
7433;BME280;32233;49.500;7.764;2023-02-18T10:27:36;99178.75;;;10.64;81.87
7433;BME280;32233;49.500;7.764;2023-02-18T10:30:42;99186.16;;;10.54;81.41
7433;BME280;32233;49.500;7.764;2023-02-18T10:33:26;99188.34;;;10.36;81.40
7433;BME280;32233;49.500;7.764;2023-02-18T10:39:00;99198.41;;;10.17;82.40
7433;BME280;32233;49.500;7.764;2023-02-18T10:41:38;99192.53;;;10.30;81.41
7433;BME280;32233;49.500;7.764;2023-02-18T10:49:59;99197.84;;;10.45;80.28
7433;BME280;32233;49.500;7.764;2023-02-18T10:52:33;99197.28;;;10.50;77.88
7433;BME280;32233;49.500;7.764;2023-02-18T10:55:11;99199.09;;;10.64;78.54
7433;BME280;32233;49.500;7.764;2023-02-18T10:57:46;99193.06;;;10.85;78.01
7433;BME280;32233;49.500;7.764;2023-02-18T11:00:26;99188.44;;;11.23;75.82
7433;BME280;32233;49.500;7.764;2023-02-18T11:03:17;99183.03;;;11.31;74.00
7433;BME280;32233;49.500;7.764;2023-02-18T11:05:47;99182.25;;;11.37;72.29
7433;BME280;32233;49.500;7.764;2023-02-18T11:08:22;99190.03;;;11.39;73.77
7433;BME280;32233;49.500;7.764;2023-02-18T11:10:50;99177.59;;;11.39;72.71
7433;BME280;32233;49.500;7.764;2023-02-18T11:13:26;99175.56;;;11.63;71.74
7433;BME280;32233;49.500;7.764;2023-02-18T11:16:03;99173.25;;;11.96;70.09
7433;BME280;32233;49.500;7.764;2023-02-18T11:18:38;99169.38;;;12.27;68.53
7433;BME280;32233;49.500;7.764;2023-02-18T11:21:31;99167.38;;;13.25;63.60
7433;BME280;32233;49.500;7.764;2023-02-18T11:24:08;99154.75;;;13.86;62.58
7433;BME280;32233;49.500;7.764;2023-02-18T11:26:35;99169.47;;;13.82;62.03
7433;BME280;32233;49.500;7.764;2023-02-18T11:29:15;99160.59;;;13.22;63.10
7433;BME280;32233;49.500;7.764;2023-02-18T11:31:46;99162.94;;;13.58;63.45
7433;BME280;32233;49.500;7.764;2023-02-18T11:34:17;99150.66;;;14.10;60.88
7433;BME280;32233;49.500;7.764;2023-02-18T11:36:44;99157.75;;;14.56;58.91
7433;BME280;32233;49.500;7.764;2023-02-18T11:39:23;99141.31;;;15.43;55.94
7433;BME280;32233;49.500;7.764;2023-02-18T11:42:01;99137.63;;;16.00;54.77
7433;BME280;32233;49.500;7.764;2023-02-18T11:44:33;99135.00;;;16.37;52.99
7433;BME280;32233;49.500;7.764;2023-02-18T11:49:42;99122.13;;;15.34;56.18
7433;BME280;32233;49.500;7.764;2023-02-18T11:52:19;99121.97;;;14.32;57.68
7433;BME280;32233;49.500;7.764;2023-02-18T11:55:06;99125.34;;;13.35;59.89
7433;BME280;32233;49.500;7.764;2023-02-18T11:57:38;99112.44;;;12.64;62.70
7433;BME280;32233;49.500;7.764;2023-02-18T12:02:51;99115.72;;;11.90;66.00
7433;BME280;32233;49.500;7.764;2023-02-18T12:07:51;99089.31;;;12.45;65.73
7433;BME280;32233;49.500;7.764;2023-02-18T12:10:30;99112.34;;;12.92;63.39
7433;BME280;32233;49.500;7.764;2023-02-18T12:13:06;99096.09;;;13.95;59.01
7433;BME280;32233;49.500;7.764;2023-02-18T12:24:31;99093.09;;;14.43;56.56
7433;BME280;32233;49.500;7.764;2023-02-18T12:27:15;99089.50;;;14.04;56.95
7433;BME280;32233;49.500;7.764;2023-02-18T12:32:25;99080.38;;;13.80;58.05
7433;BME280;32233;49.500;7.764;2023-02-18T12:35:15;99083.66;;;14.60;56.13
7433;BME280;32233;49.500;7.764;2023-02-18T12:41:37;99073.81;;;13.16;59.16
7433;BME280;32233;49.500;7.764;2023-02-18T12:49:36;99084.84;;;12.45;63.68
7433;BME280;32233;49.500;7.764;2023-02-18T13:08:58;99062.78;;;13.12;61.00
7433;BME280;32233;49.500;7.764;2023-02-18T13:11:40;99056.44;;;13.13;62.49
7433;BME280;32233;49.500;7.764;2023-02-18T13:14:18;99057.66;;;12.91;62.78
7433;BME280;32233;49.500;7.764;2023-02-18T13:16:50;99053.31;;;12.70;62.38
7433;BME280;32233;49.500;7.764;2023-02-18T13:19:21;99054.97;;;12.23;63.67
7433;BME280;32233;49.500;7.764;2023-02-18T13:21:51;99060.38;;;12.02;64.89
7433;BME280;32233;49.500;7.764;2023-02-18T13:24:31;99049.69;;;11.88;64.52
7433;BME280;32233;49.500;7.764;2023-02-18T13:35:37;99042.13;;;12.27;66.78
7433;BME280;32233;49.500;7.764;2023-02-18T13:40:51;99048.03;;;12.22;65.09
7433;BME280;32233;49.500;7.764;2023-02-18T13:48:48;99042.78;;;11.66;67.38
7433;BME280;32233;49.500;7.764;2023-02-18T13:51:39;99042.03;;;11.44;68.41
7433;BME280;32233;49.500;7.764;2023-02-18T13:56:45;99044.63;;;11.65;67.93
7433;BME280;32233;49.500;7.764;2023-02-18T13:59:22;99048.13;;;11.73;68.33
7433;BME280;32233;49.500;7.764;2023-02-18T14:01:51;99039.84;;;11.54;68.52
7433;BME280;32233;49.500;7.764;2023-02-18T14:07:26;99041.69;;;11.54;69.37
7433;BME280;32233;49.500;7.764;2023-02-18T14:09:56;99029.75;;;11.36;68.93
7433;BME280;32233;49.500;7.764;2023-02-18T14:14:57;99042.09;;;11.29;69.61
7433;BME280;32233;49.500;7.764;2023-02-18T14:17:37;99031.84;;;11.20;70.24
7433;BME280;32233;49.500;7.764;2023-02-18T14:22:44;99031.25;;;10.96;70.86
7433;BME280;32233;49.500;7.764;2023-02-18T14:27:38;99025.63;;;10.84;71.79
7433;BME280;32233;49.500;7.764;2023-02-18T14:30:13;99020.47;;;11.19;70.33
7433;BME280;32233;49.500;7.764;2023-02-18T14:32:42;99029.75;;;11.36;69.58
7433;BME280;32233;49.500;7.764;2023-02-18T14:35:36;99036.78;;;11.23;69.66
7433;BME280;32233;49.500;7.764;2023-02-18T14:38:20;99032.50;;;11.00;70.59
7433;BME280;32233;49.500;7.764;2023-02-18T14:40:55;99020.09;;;10.79;72.03
7433;BME280;32233;49.500;7.764;2023-02-18T14:46:31;99026.00;;;10.81;72.03
7433;BME280;32233;49.500;7.764;2023-02-18T14:51:47;99024.19;;;10.82;72.29
7433;BME280;32233;49.500;7.764;2023-02-18T14:54:17;99024.81;;;10.84;72.58
7433;BME280;32233;49.500;7.764;2023-02-18T14:57:00;99025.25;;;10.87;72.84
7433;BME280;32233;49.500;7.764;2023-02-18T14:59:40;99036.56;;;10.81;73.19
7433;BME280;32233;49.500;7.764;2023-02-18T15:02:21;99042.66;;;10.60;74.04
7433;BME280;32233;49.500;7.764;2023-02-18T15:04:48;99040.91;;;10.46;74.76
7433;BME280;32233;49.500;7.764;2023-02-18T15:07:19;99038.97;;;10.40;75.20
7433;BME280;32233;49.500;7.764;2023-02-18T15:09:48;99043.28;;;10.41;74.99
7433;BME280;32233;49.500;7.764;2023-02-18T15:12:18;99035.91;;;10.22;76.57
7433;BME280;32233;49.500;7.764;2023-02-18T15:14:47;99038.44;;;10.15;76.54
7433;BME280;32233;49.500;7.764;2023-02-18T15:17:23;99044.28;;;10.10;77.70
7433;BME280;32233;49.500;7.764;2023-02-18T15:19:57;99049.38;;;10.12;77.67
7433;BME280;32233;49.500;7.764;2023-02-18T15:22:31;99064.44;;;9.97;79.51
7433;BME280;32233;49.500;7.764;2023-02-18T15:24:59;99060.88;;;9.89;79.69
7433;BME280;32233;49.500;7.764;2023-02-18T15:27:29;99049.94;;;9.92;79.86
7433;BME280;32233;49.500;7.764;2023-02-18T15:32:50;99059.03;;;9.75;80.71
7433;BME280;32233;49.500;7.764;2023-02-18T15:35:19;99056.75;;;9.72;81.35